Terminal Aerodrome Forecast
Issued by NWS

Home | Current Version | Previous Version | Text Only | Print | Product List | Glossary On
Versions: 1 2 3 4 5 6 7 8 9 10 11 12 13 14 15 16 17 18 19 20 21 22
000
FTUS41 KBUF 240839 AAA
TAFIAG
TAF AMD
KIAG 240839Z 2409/2506 VRB03KT P6SM BKN250
     FM241300 15005KT P6SM BKN200
     FM241700 21008KT P6SM BKN150
     FM242100 20008KT P6SM VCSH BKN100=

USA.gov is the U.S. government's official web portal to all federal, state and local government web resources and services.